createdAt,value
2019-02-23T00:02:20.780Z,11.33
2019-02-23T00:04:48.892Z,11.40
2019-02-23T00:07:16.544Z,11.90
2019-02-23T00:09:44.510Z,12.13
2019-02-23T00:12:12.443Z,10.80
2019-02-23T00:14:40.109Z,12.30
2019-02-23T00:17:08.102Z,11.63
2019-02-23T00:19:36.009Z,11.13
2019-02-23T00:22:04.328Z,14.30
2019-02-23T00:24:32.653Z,10.53
2019-02-23T00:27:00.856Z,12.60
2019-02-23T00:29:29.206Z,13.53
2019-02-23T00:31:57.161Z,14.17
2019-02-23T00:34:25.196Z,12.43
2019-02-23T00:36:53.552Z,14.30
2019-02-23T00:39:21.468Z,13.67
2019-02-23T00:41:49.545Z,13.97
2019-02-23T00:44:17.473Z,13.13
2019-02-23T00:46:46.037Z,13.57
2019-02-23T00:49:14.116Z,13.70
2019-02-23T00:51:42.187Z,12.50
2019-02-23T00:54:10.126Z,13.67
2019-02-23T00:56:38.425Z,11.97
2019-02-23T00:59:06.458Z,11.63
2019-02-23T01:01:34.414Z,11.93
2019-02-23T01:04:02.070Z,13.27
2019-02-23T01:06:29.743Z,12.17
2019-02-23T01:08:57.720Z,13.97
2019-02-23T01:11:25.649Z,13.60
2019-02-23T01:13:53.781Z,11.97
2019-02-23T01:16:21.793Z,16.87
2019-02-23T01:18:49.718Z,14.53
2019-02-23T01:21:17.758Z,17.00
2019-02-23T01:23:45.738Z,14.73
2019-02-23T01:26:13.705Z,13.43
2019-02-23T01:28:42.029Z,12.77
2019-02-23T01:31:10.433Z,15.53
2019-02-23T01:33:38.681Z,16.43
2019-02-23T01:36:06.718Z,14.20
2019-02-23T01:38:34.702Z,12.23
2019-02-23T01:41:03.045Z,13.70
2019-02-23T01:43:31.701Z,12.90
2019-02-23T01:45:59.672Z,15.80
2019-02-23T01:48:27.709Z,14.53
2019-02-23T01:50:55.360Z,15.80
2019-02-23T01:53:23.363Z,15.47
2019-02-23T01:55:51.390Z,16.53
2019-02-23T01:58:19.128Z,14.83
2019-02-23T02:00:46.886Z,16.83
2019-02-23T02:03:14.906Z,15.87
2019-02-23T02:05:42.849Z,16.17
2019-02-23T02:08:10.516Z,17.20
2019-02-23T02:10:38.262Z,15.37
2019-02-23T02:13:06.464Z,16.03
2019-02-23T02:15:34.289Z,14.33
2019-02-23T02:18:02.485Z,14.63
2019-02-23T02:20:30.150Z,16.37
2019-02-23T02:22:58.377Z,16.70
2019-02-23T02:25:26.753Z,14.67
2019-02-23T02:27:55.082Z,17.83
2019-02-23T02:30:23.014Z,15.43
2019-02-23T02:32:51.081Z,17.07
2019-02-23T02:35:19.460Z,15.33
2019-02-23T02:37:47.622Z,14.17
2019-02-23T02:40:15.306Z,16.43
2019-02-23T02:42:43.232Z,16.90
2019-02-23T02:45:10.905Z,16.23
2019-02-23T02:47:39.302Z,14.10
2019-02-23T02:50:07.498Z,14.67
2019-02-23T02:52:35.498Z,14.90
2019-02-23T02:55:03.255Z,17.33
2019-02-23T02:57:30.927Z,15.40
2019-02-23T02:59:58.903Z,15.80
2019-02-23T03:02:26.938Z,16.03
2019-02-23T03:04:54.934Z,12.07
2019-02-23T03:07:23.259Z,14.43
2019-02-23T03:09:51.572Z,13.87
2019-02-23T03:12:19.501Z,14.80
2019-02-23T03:14:47.434Z,13.50
2019-02-23T03:17:15.114Z,14.10
2019-02-23T03:19:44.042Z,16.03
2019-02-23T03:22:12.265Z,14.17
2019-02-23T03:24:40.364Z,14.03
2019-02-23T03:27:08.045Z,14.63
2019-02-23T03:29:36.393Z,14.33
2019-02-23T03:32:04.689Z,16.90
2019-02-23T03:34:32.701Z,12.53
2019-02-23T03:37:00.705Z,13.67
2019-02-23T03:39:28.641Z,13.83
2019-02-23T03:41:56.343Z,15.50
2019-02-23T03:44:24.266Z,15.13
2019-02-23T03:46:52.925Z,13.97
2019-02-23T03:49:21.185Z,14.03
2019-02-23T03:51:49.871Z,16.57
2019-02-23T03:54:17.813Z,14.00
2019-02-23T03:56:45.775Z,16.20
2019-02-23T03:59:13.985Z,14.13
2019-02-23T04:01:41.913Z,13.13
2019-02-23T04:04:10.547Z,13.87
2019-02-23T04:06:38.506Z,14.80
2019-02-23T04:09:06.806Z,14.57
2019-02-23T04:11:34.696Z,14.40
2019-02-23T04:14:03.018Z,16.03
2019-02-23T04:16:31.309Z,15.30
2019-02-23T04:18:59.066Z,15.30
2019-02-23T04:21:27.350Z,19.00
2019-02-23T04:23:55.521Z,17.03
2019-02-23T04:26:23.902Z,15.60
2019-02-23T04:28:51.873Z,18.27
2019-02-23T04:31:19.777Z,18.37
2019-02-23T04:33:47.449Z,18.50
2019-02-23T04:36:15.148Z,17.53
2019-02-23T04:38:43.093Z,20.47
2019-02-23T04:41:11.071Z,17.90
2019-02-23T04:43:38.733Z,16.97
2019-02-23T04:46:07.254Z,23.30
2019-02-23T04:48:34.909Z,17.90
2019-02-23T04:51:13.977Z,20.07
2019-02-23T04:53:32.618Z,17.87
2019-02-23T04:56:00.538Z,20.13
2019-02-23T04:58:29.140Z,19.27
2019-02-23T05:00:57.463Z,17.27
2019-02-23T05:03:25.792Z,20.37
2019-02-23T05:05:53.737Z,17.33
2019-02-23T05:08:21.710Z,19.17
2019-02-23T05:10:50.088Z,17.80
2019-02-23T05:13:18.309Z,17.17
2019-02-23T05:15:46.315Z,17.60
2019-02-23T05:18:14.243Z,20.47
2019-02-23T05:20:42.551Z,17.67
2019-02-23T05:23:10.241Z,18.03
2019-02-23T05:25:38.844Z,18.07
2019-02-23T05:28:07.542Z,17.40
2019-02-23T05:30:35.909Z,19.07
2019-02-23T05:33:04.251Z,17.83
2019-02-23T05:35:31.911Z,16.43
2019-02-23T05:37:59.580Z,18.80
2019-02-23T05:40:27.546Z,17.77
2019-02-23T05:43:00.904Z,19.37
2019-02-23T05:45:26.140Z,16.07
2019-02-23T05:47:53.817Z,17.53
2019-02-23T05:50:22.020Z,16.97
2019-02-23T05:52:49.948Z,18.67
2019-02-23T05:55:17.942Z,17.30
2019-02-23T05:57:46.282Z,14.47
2019-02-23T06:00:14.781Z,18.20
2019-02-23T06:02:45.070Z,17.20
2019-02-23T06:05:13.114Z,16.87
2019-02-23T06:07:41.465Z,18.87
2019-02-23T06:10:10.272Z,17.00
2019-02-23T06:12:37.986Z,17.37
2019-02-23T06:15:06.625Z,18.20
2019-02-23T06:17:35.114Z,17.30
2019-02-23T06:20:03.084Z,17.40
2019-02-23T06:22:31.673Z,16.50
2019-02-23T06:25:00.320Z,14.73
2019-02-23T06:27:28.530Z,15.30
2019-02-23T06:29:56.585Z,13.53
2019-02-23T06:32:25.173Z,15.20
2019-02-23T06:34:53.207Z,16.97
2019-02-23T06:37:20.836Z,14.30
2019-02-23T06:39:48.513Z,18.30
2019-02-23T06:42:16.490Z,14.97
2019-02-23T06:44:44.169Z,16.27
2019-02-23T06:47:12.086Z,17.37
2019-02-23T06:49:40.561Z,15.67
2019-02-23T06:52:08.260Z,14.87
2019-02-23T06:54:36.449Z,17.10
2019-02-23T06:57:04.153Z,15.90
2019-02-23T06:59:31.945Z,15.73
2019-02-23T07:02:00.350Z,15.67
2019-02-23T07:04:28.025Z,15.73
2019-02-23T07:06:56.028Z,14.50
2019-02-23T07:09:24.318Z,15.47
2019-02-23T07:11:52.262Z,15.10
2019-02-23T07:14:19.921Z,15.80
2019-02-23T07:16:47.874Z,17.40
2019-02-23T07:19:15.787Z,16.57
2019-02-23T07:21:44.149Z,14.50
2019-02-23T07:24:11.912Z,14.47
2019-02-23T07:26:39.594Z,15.57
2019-02-23T07:29:07.257Z,18.00
2019-02-23T07:31:35.007Z,15.40
2019-02-23T07:34:02.974Z,16.40
2019-02-23T07:36:30.944Z,16.27
2019-02-23T07:38:59.113Z,15.90
2019-02-23T07:41:26.885Z,14.90
2019-02-23T07:43:54.852Z,17.77
2019-02-23T07:46:22.514Z,15.67
2019-02-23T07:48:50.812Z,16.70
2019-02-23T07:51:19.145Z,15.80
2019-02-23T07:53:47.092Z,15.67
2019-02-23T07:56:14.816Z,16.30
2019-02-23T07:58:43.082Z,19.40
2019-02-23T08:01:11.017Z,16.83
2019-02-23T08:03:39.286Z,16.57
2019-02-23T08:06:07.310Z,17.13
2019-02-23T08:08:35.990Z,17.60
2019-02-23T08:11:04.242Z,16.53
2019-02-23T08:13:32.484Z,17.23
2019-02-23T08:16:00.132Z,17.27
2019-02-23T08:18:28.116Z,16.87
2019-02-23T08:20:56.065Z,17.50
2019-02-23T08:23:24.360Z,16.60
2019-02-23T08:25:52.334Z,18.00
2019-02-23T08:28:20.033Z,15.80
2019-02-23T08:30:47.729Z,17.90
2019-02-23T08:33:15.865Z,17.30
2019-02-23T08:35:44.450Z,16.70
2019-02-23T08:38:13.140Z,17.00
2019-02-23T08:40:41.729Z,18.00
2019-02-23T08:43:09.685Z,15.93
2019-02-23T08:45:38.041Z,20.33
2019-02-23T08:48:06.021Z,19.20
2019-02-23T08:50:34.526Z,16.87
2019-02-23T08:53:02.606Z,16.77
2019-02-23T08:55:30.694Z,18.20
2019-02-23T08:57:58.749Z,20.53
2019-02-23T09:00:26.658Z,16.20
2019-02-23T09:02:54.882Z,15.67
2019-02-23T09:05:23.068Z,19.13
2019-02-23T09:07:50.764Z,15.60
2019-02-23T09:10:19.006Z,17.03
2019-02-23T09:12:47.022Z,18.80
2019-02-23T09:15:15.029Z,19.00
2019-02-23T09:17:43.834Z,16.43
2019-02-23T09:20:11.875Z,21.30
2019-02-23T09:22:39.825Z,14.73
2019-02-23T09:25:07.521Z,16.03
2019-02-23T09:27:35.905Z,15.10
2019-02-23T09:30:03.897Z,17.10
2019-02-23T09:32:31.828Z,16.03
2019-02-23T09:35:00.319Z,16.20
2019-02-23T09:37:28.289Z,14.90
2019-02-23T09:39:56.874Z,17.43
2019-02-23T09:42:24.785Z,17.17
2019-02-23T09:44:52.430Z,15.57
2019-02-23T09:47:20.353Z,16.30
2019-02-23T09:49:48.325Z,15.70
2019-02-23T09:52:16.289Z,16.27
2019-02-23T09:54:44.205Z,15.73
2019-02-23T09:57:12.474Z,18.33
2019-02-23T09:59:40.364Z,16.23
2019-02-23T10:02:08.303Z,16.23
2019-02-23T10:04:36.057Z,13.13
2019-02-23T10:07:03.804Z,15.90
2019-02-23T10:09:32.060Z,14.17
2019-02-23T10:12:00.068Z,15.30
2019-02-23T10:14:28.350Z,16.07
2019-02-23T10:16:56.642Z,15.30
2019-02-23T10:19:24.930Z,14.93
2019-02-23T10:21:53.234Z,14.63
2019-02-23T10:24:20.906Z,13.10
2019-02-23T10:26:49.124Z,14.00
2019-02-23T10:29:17.449Z,14.87
2019-02-23T10:31:46.077Z,14.17
2019-02-23T10:34:14.018Z,13.30
2019-02-23T10:36:42.321Z,13.73
2019-02-23T10:39:10.261Z,14.80
2019-02-23T10:41:38.302Z,12.90
2019-02-23T10:44:06.308Z,13.67
2019-02-23T10:46:33.962Z,13.53
2019-02-23T10:49:01.629Z,12.90
2019-02-23T10:51:29.347Z,15.50
2019-02-23T10:53:57.005Z,14.60
2019-02-23T10:56:24.745Z,13.03
2019-02-23T10:58:53.430Z,9.90
2019-02-23T11:01:21.766Z,11.60
2019-02-23T11:03:49.989Z,12.73
2019-02-23T11:06:18.053Z,14.37
2019-02-23T11:08:46.180Z,11.07
2019-02-23T11:11:14.205Z,13.20
2019-02-23T11:13:42.166Z,11.53
2019-02-23T11:16:10.185Z,12.73
2019-02-23T11:18:38.537Z,13.83
2019-02-23T11:21:06.214Z,11.30
2019-02-23T11:23:43.831Z,11.73
2019-02-23T11:26:04.469Z,10.90
2019-02-23T11:28:32.717Z,11.93
2019-02-23T11:31:01.021Z,13.80
2019-02-23T11:33:29.198Z,11.47
2019-02-23T11:35:56.870Z,10.80
2019-02-23T11:38:25.258Z,12.40
2019-02-23T11:40:52.933Z,13.63
2019-02-23T11:43:20.594Z,10.30
2019-02-23T11:45:48.575Z,10.50
2019-02-23T11:48:17.213Z,10.63
2019-02-23T11:50:45.496Z,11.10
2019-02-23T11:53:13.166Z,9.57
2019-02-23T11:55:41.441Z,10.33
2019-02-23T11:58:09.597Z,10.67
2019-02-23T12:00:37.740Z,11.20
2019-02-23T12:03:06.031Z,9.40
2019-02-23T12:05:33.982Z,10.73
2019-02-23T12:08:01.650Z,11.63
2019-02-23T12:10:29.877Z,10.50
2019-02-23T12:12:58.249Z,9.07
2019-02-23T12:15:26.966Z,11.00
2019-02-23T12:17:54.936Z,9.93
2019-02-23T12:20:23.245Z,10.10
2019-02-23T12:22:51.141Z,9.33
2019-02-23T12:25:18.814Z,8.90
2019-02-23T12:27:46.728Z,8.30
2019-02-23T12:30:14.687Z,8.00
2019-02-23T12:32:42.902Z,7.63
2019-02-23T12:35:10.576Z,7.50
2019-02-23T12:37:38.494Z,7.57
2019-02-23T12:40:06.156Z,6.77
2019-02-23T12:42:34.121Z,7.70
2019-02-23T12:45:01.789Z,7.57
2019-02-23T12:47:29.446Z,7.70
2019-02-23T12:49:57.374Z,8.60
2019-02-23T12:52:25.645Z,7.87
2019-02-23T12:54:53.502Z,7.50
2019-02-23T12:57:21.698Z,8.40
2019-02-23T12:59:49.601Z,6.93
2019-02-23T13:02:17.509Z,7.00
2019-02-23T13:04:45.473Z,10.20
2019-02-23T13:07:13.592Z,6.90
2019-02-23T13:09:43.950Z,8.83
2019-02-23T13:12:19.715Z,7.27
2019-02-23T13:14:52.729Z,7.97
2019-02-23T13:17:42.092Z,8.07
2019-02-23T13:20:41.269Z,8.17
2019-02-23T13:23:15.232Z,6.60
2019-02-23T13:25:46.681Z,7.30
2019-02-23T13:28:30.511Z,6.20
2019-02-23T13:31:17.370Z,4.43
2019-02-23T13:33:52.009Z,8.93
2019-02-23T13:36:41.981Z,8.33
2019-02-23T13:39:12.654Z,6.40
2019-02-23T13:41:48.177Z,7.17
2019-02-23T13:44:33.875Z,8.20
2019-02-23T13:47:20.660Z,7.13
2019-02-23T13:50:01.791Z,6.77
2019-02-23T13:52:52.490Z,6.03
2019-02-23T13:55:38.439Z,6.23
2019-02-23T13:58:25.246Z,6.40
2019-02-23T14:01:24.691Z,7.93
2019-02-23T14:04:23.806Z,7.03
2019-02-23T14:07:17.937Z,7.20
2019-02-23T14:10:10.665Z,8.40
2019-02-23T14:13:13.417Z,5.77
2019-02-23T14:15:59.507Z,8.00
2019-02-23T14:18:42.515Z,8.10
2019-02-23T14:21:28.217Z,6.87
2019-02-23T14:24:07.002Z,7.53
2019-02-23T14:27:06.121Z,7.20
2019-02-23T14:29:56.118Z,6.83
2019-02-23T14:32:49.105Z,7.07
2019-02-23T14:35:21.199Z,5.90
2019-02-23T14:38:26.992Z,7.57
2019-02-23T14:41:19.885Z,6.73
2019-02-23T14:44:05.181Z,6.50
2019-02-23T14:46:50.968Z,6.60
2019-02-23T14:49:41.168Z,10.50
2019-02-23T14:52:46.407Z,7.50
2019-02-23T14:55:33.616Z,8.27
2019-02-23T14:58:29.372Z,7.57
2019-02-23T15:01:18.989Z,7.97
2019-02-23T15:04:15.226Z,7.97
2019-02-23T15:07:08.089Z,7.90
2019-02-23T15:09:48.981Z,13.63
2019-02-23T15:12:32.252Z,8.00
2019-02-23T15:15:19.038Z,7.83
2019-02-23T15:18:05.309Z,11.10
2019-02-23T15:21:01.347Z,9.93
2019-02-23T15:23:48.696Z,9.07
2019-02-23T15:26:32.613Z,11.90
2019-02-23T15:29:07.340Z,7.40
2019-02-23T15:31:54.137Z,10.27
2019-02-23T15:34:25.957Z,8.50
2019-02-23T15:37:15.106Z,9.07
2019-02-23T15:40:04.711Z,9.93
2019-02-23T15:42:36.653Z,11.83
2019-02-23T15:45:35.893Z,9.40
2019-02-23T15:48:25.732Z,9.90
2019-02-23T15:50:53.450Z,7.83
2019-02-23T15:53:21.457Z,10.30
2019-02-23T15:55:50.146Z,11.53
2019-02-23T15:58:17.798Z,8.83
2019-02-23T16:00:45.681Z,9.33
2019-02-23T16:03:13.764Z,12.07
2019-02-23T16:05:41.764Z,8.73
2019-02-23T16:08:09.709Z,12.00
2019-02-23T16:10:37.766Z,9.70
2019-02-23T16:13:05.420Z,9.50
2019-02-23T16:15:33.621Z,9.30
2019-02-23T16:18:01.935Z,8.80
2019-02-23T16:20:29.631Z,9.53
2019-02-23T16:22:57.867Z,10.17
2019-02-23T16:25:37.859Z,9.90
2019-02-23T16:27:55.674Z,11.60
2019-02-23T16:30:23.324Z,10.17
2019-02-23T16:32:51.466Z,10.00
2019-02-23T16:35:22.355Z,10.97
2019-02-23T16:37:48.797Z,9.57
2019-02-23T16:40:16.951Z,9.50
2019-02-23T16:42:44.893Z,8.57
2019-02-23T16:45:12.973Z,9.77
2019-02-23T16:47:40.884Z,8.77
2019-02-23T16:50:09.361Z,10.50
2019-02-23T16:52:37.033Z,11.10
2019-02-23T16:55:05.547Z,9.73
2019-02-23T16:57:33.459Z,11.30
2019-02-23T17:00:01.125Z,10.23
2019-02-23T17:02:29.718Z,9.80
2019-02-23T17:04:58.086Z,14.20
2019-02-23T17:07:26.021Z,11.47
2019-02-23T17:09:53.994Z,14.40
2019-02-23T17:12:21.961Z,10.80
2019-02-23T17:14:50.257Z,13.00
2019-02-23T17:17:18.278Z,10.00
2019-02-23T17:19:45.936Z,9.80
2019-02-23T17:22:13.977Z,10.60
2019-02-23T17:24:42.179Z,10.80
2019-02-23T17:27:10.230Z,13.00
2019-02-23T17:29:37.869Z,14.43
2019-02-23T17:32:05.818Z,12.30
2019-02-23T17:34:34.162Z,10.73
2019-02-23T17:37:02.105Z,13.53
2019-02-23T17:39:30.281Z,13.70
2019-02-23T17:41:58.457Z,19.30
2019-02-23T17:44:27.038Z,11.70
2019-02-23T17:46:55.226Z,15.30
2019-02-23T17:49:22.882Z,11.50
2019-02-23T17:51:51.503Z,10.87
2019-02-23T17:54:19.225Z,12.37
2019-02-23T17:56:47.254Z,12.30
2019-02-23T17:59:15.205Z,11.90
2019-02-23T18:01:42.878Z,11.50
2019-02-23T18:04:10.796Z,11.80
2019-02-23T18:06:39.274Z,11.03
2019-02-23T18:09:07.556Z,12.70
2019-02-23T18:11:35.920Z,14.47
2019-02-23T18:14:03.816Z,16.67
2019-02-23T18:16:31.925Z,15.17
2019-02-23T18:19:00.154Z,13.17
2019-02-23T18:21:28.429Z,13.33
2019-02-23T18:23:56.393Z,13.10
2019-02-23T18:26:24.602Z,12.20
2019-02-23T18:28:52.945Z,13.57
2019-02-23T18:31:21.226Z,14.93
2019-02-23T18:33:49.262Z,11.80
2019-02-23T18:36:17.476Z,12.17
2019-02-23T18:38:46.060Z,12.70
2019-02-23T18:41:13.729Z,11.50
2019-02-23T18:43:42.392Z,14.03
2019-02-23T18:46:10.992Z,11.43
2019-02-23T18:48:38.657Z,17.77
2019-02-23T18:51:06.329Z,11.77
2019-02-23T18:53:34.693Z,12.80
2019-02-23T18:56:03.173Z,11.30
2019-02-23T18:58:31.264Z,14.90
2019-02-23T19:00:59.621Z,13.70
2019-02-23T19:03:27.353Z,13.13
2019-02-23T19:05:55.268Z,13.87
2019-02-23T19:08:22.925Z,13.10
2019-02-23T19:10:51.256Z,15.03
2019-02-23T19:13:19.197Z,14.47
2019-02-23T19:15:47.136Z,15.67
2019-02-23T19:18:15.526Z,13.07
2019-02-23T19:20:43.193Z,13.40
2019-02-23T19:23:11.202Z,15.90
2019-02-23T19:25:39.353Z,17.53
2019-02-23T19:28:07.021Z,13.60
2019-02-23T19:30:34.937Z,15.23
2019-02-23T19:33:02.632Z,14.97
2019-02-23T19:35:30.569Z,14.37
2019-02-23T19:37:58.450Z,14.83
2019-02-23T19:40:26.689Z,15.70
2019-02-23T19:42:54.655Z,16.40
2019-02-23T19:45:22.612Z,13.57
2019-02-23T19:47:50.694Z,13.97
2019-02-23T19:50:20.339Z,12.27
2019-02-23T19:52:48.278Z,13.70
2019-02-23T19:55:16.143Z,15.10
2019-02-23T19:57:44.358Z,16.53
2019-02-23T20:00:12.399Z,15.57
2019-02-23T20:02:40.444Z,14.60
2019-02-23T20:05:08.365Z,16.67
2019-02-23T20:07:36.021Z,17.60
2019-02-23T20:10:03.704Z,15.20
2019-02-23T20:12:31.773Z,14.90
2019-02-23T20:14:59.448Z,16.90
2019-02-23T20:17:27.690Z,16.57
2019-02-23T20:19:55.977Z,12.90
2019-02-23T20:22:23.893Z,16.20
2019-02-23T20:24:51.854Z,14.57
2019-02-23T20:27:19.824Z,13.10
2019-02-23T20:29:47.523Z,15.70
2019-02-23T20:32:15.455Z,12.83
2019-02-23T20:34:43.738Z,14.43
2019-02-23T20:37:11.678Z,13.77
2019-02-23T20:39:39.689Z,15.17
2019-02-23T20:42:07.692Z,16.20
2019-02-23T20:44:35.345Z,13.73
2019-02-23T20:47:03.726Z,15.20
2019-02-23T20:49:31.482Z,14.97
2019-02-23T20:51:59.519Z,13.33
2019-02-23T20:54:27.506Z,15.20
2019-02-23T20:57:03.855Z,17.17
2019-02-23T20:59:25.185Z,15.37
2019-02-23T21:01:53.189Z,14.93
2019-02-23T21:04:21.485Z,18.13
2019-02-23T21:06:49.589Z,16.47
2019-02-23T21:09:18.228Z,13.57
2019-02-23T21:11:45.970Z,16.70
2019-02-23T21:14:13.621Z,18.60
2019-02-23T21:16:41.301Z,16.23
2019-02-23T21:19:09.208Z,16.27
2019-02-23T21:21:37.148Z,15.50
2019-02-23T21:24:05.061Z,16.50
2019-02-23T21:26:32.724Z,14.63
2019-02-23T21:29:00.413Z,15.03
2019-02-23T21:31:28.365Z,15.60
2019-02-23T21:33:56.573Z,14.93
2019-02-23T21:36:24.917Z,13.80
2019-02-23T21:38:53.137Z,13.33
2019-02-23T21:41:20.805Z,15.80
2019-02-23T21:43:48.568Z,13.27
2019-02-23T21:46:16.897Z,16.83
2019-02-23T21:48:45.220Z,12.20
2019-02-23T21:51:12.963Z,14.77
2019-02-23T21:53:40.893Z,13.37
2019-02-23T21:56:09.421Z,12.97
2019-02-23T21:58:37.755Z,14.20
2019-02-23T22:01:05.691Z,13.83
2019-02-23T22:03:33.944Z,16.00
2019-02-23T22:06:01.918Z,16.80
2019-02-23T22:08:29.961Z,13.47
2019-02-23T22:10:58.517Z,13.47
2019-02-23T22:13:26.519Z,16.20
2019-02-23T22:15:54.525Z,15.30
2019-02-23T22:18:22.783Z,13.27
2019-02-23T22:20:51.454Z,13.60
2019-02-23T22:23:19.394Z,13.50
2019-02-23T22:25:47.052Z,13.00
2019-02-23T22:28:15.049Z,14.83
2019-02-23T22:30:43.253Z,14.07
2019-02-23T22:33:10.922Z,14.57
2019-02-23T22:35:39.176Z,14.07
2019-02-23T22:38:06.840Z,12.83
2019-02-23T22:40:35.126Z,13.00
2019-02-23T22:43:03.503Z,13.30
2019-02-23T22:45:31.526Z,14.07
2019-02-23T22:47:59.804Z,14.03
2019-02-23T22:50:28.120Z,12.23
2019-02-23T22:52:56.455Z,13.70
2019-02-23T22:55:24.488Z,13.00
2019-02-23T22:57:52.157Z,12.37
2019-02-23T23:00:23.785Z,13.33
2019-02-23T23:02:51.785Z,14.73
2019-02-23T23:05:19.521Z,15.80
2019-02-23T23:07:47.196Z,13.50
2019-02-23T23:10:15.137Z,15.90
2019-02-23T23:12:43.078Z,13.73
2019-02-23T23:15:10.757Z,12.40
2019-02-23T23:17:39.037Z,15.47
2019-02-23T23:20:07.270Z,14.77
2019-02-23T23:22:35.261Z,12.63
2019-02-23T23:25:02.928Z,13.73
2019-02-23T23:27:30.949Z,14.47
2019-02-23T23:29:58.607Z,14.73
2019-02-23T23:32:26.501Z,14.67
2019-02-23T23:34:54.169Z,12.93
2019-02-23T23:37:22.092Z,12.50
2019-02-23T23:39:49.758Z,12.23
2019-02-23T23:42:18.362Z,12.70
2019-02-23T23:44:46.516Z,13.33
2019-02-23T23:47:14.788Z,14.27
2019-02-23T23:49:42.466Z,13.27
2019-02-23T23:54:33.514Z,11.57
2019-02-23T23:57:01.432Z,11.83
2019-02-23T23:59:29.356Z,14.83
